Air Navigation Services of Czech Republic
Airport: LKCV Updated:  18.07.2018 18:01:07  UTC
 METAR LKCV 18.07. 18:00 ...
METAR LKCV 181800Z 36004KT CAVOK 23/15 Q1013 NOSIG RMK BLU BLU=
 TAF LKCV 18.07. 17:00 ...
TAF LKCV 181700Z 1818/1918 35008KT CAVOK      TEMPO 1907/1916 33012G22KT SCT040=